Aérodrome :
LOGIN :

S'inscrire | Disclaimer

   EN    FR    IT 

 










Légende :    VFR   VFR Marginal   IFR   IFR Intensif   IFR Très Intensif
Visi : 
Plafond : 
>= 8 km
>= 3000ft
5 à 8 km
1000 à 3000 ft
1500m à 5 km
500 à 1000 ft
800 à 1500m
200 à 500 ft
< 800m
< 200 ft
Symboles :   Orages  Brouillard  Fortes neiges  Fortes précipitations  Vent > 20 kt
SIGMETs :   Divers  Orages  Givrage  Turbulence  Onde Orograph.  Cendres Volcan.







- Altitude de l'aérodrome : 336 ft
- Code IATA : GCI
- Voir les cartes d'approche


EGJB - Guernsey

DERNIER METAR :
  • 251950Z 34010KT 310V010 9999 FEW030CB 07/M00 Q1015

METARs EXPIRÉS :
  • 251920Z 34011KT 9999 VCSH FEW030CB 07/M01 Q1014
  • 251850Z 34008KT 9999 VCSH FEW030CB 08/M02 Q1014
  • 251820Z 34008KT 9999 FEW035 09/M01 Q1014
  • 251750Z 35008KT 320V020 9999 FEW035 09/M02 Q1014
  • 251720Z 35008KT 9999 FEW035 09/M02 Q1014

TAF TAF EGJB
Valide du 25 à 18h jusqu'au 26 à 03h UTC


251657Z 2518/2603 01012KT 9999 SCT035
TEMPO 2518/2603 36018G32KT 8000 SHRA BKN030CB
PROB30
TEMPO 2519/2603 5000 TSRAGS
ATIS : +44 1481 238 957
Pas de NOTAMs connus pour ce terrain.



MET'MAP, la Météo Aéronautique d'un coup d'oeil ! - Copyright ORBIFLY Décembre 2007 - Disclaimer

ORBIFLY MET'MAP TEAM :

Programmation & Développement : Alexandra Zaïnal
Conception & Développement : Baudouin d'Aumeries
Co-Programmation & Développement : Marc-Olivier Méhu
Soutien technique & logistique : Manuel Goepfert

Contact : metmap@orbifly.com




SOURCES & CREDITS :

   NOAA